上海/浦東 の空港の天気 - METARとTAF

上海浦東国際空港 ( ZSPD / PVG ) - 中国 上海市
飛行場実況気象(Metar)
観測時間06/20 07:00 CST (06/19 23:00 UTC)
風向・風速東南東 4m/s
視程10km以上
天気現象
少しの雲 雲底高度 340m
全天の8割程度の雲 雲底高度 700m
気温23℃
湿度94%
気圧1007hPa
METARZSPD 192300Z 12004MPS 9999 FEW011 BKN023 23/22 Q1007 NOSIG
過去の天気等 Google飛行場航空写真 Wunderground天気予報

過去48時間のMETAR

飛行場予報(TAF)
発表時間: 6/20 02:19 CST (6/19 18:19 UTC)
予報対象時間: 20日2時 CST ~ 21日2時 CST
風向・風速東南東 4m/s
視程6000m
全天の8割程度の雲 雲底高度 340m
全天を覆う雲 雲底高度 1010m
20日20時 CST ~ 21日2時 CST に一時的に
視程2500m
天気現象しゅう雨
全天の8割程度の雲 雲底高度 150m
全天の4割程度の積乱雲 雲底高度 910m
全天を覆う雲 雲底高度 1010m
TAF AMD ZSPD 191819Z 1918/2018 12004MPS 6000 BKN011 OVC033 TX25/2006Z TN21/1921Z
TEMPO 2012/2018 2500 SHRA BKN005 SCT030CB OVC033